Time;durP1;ratioP1;P1;durP2;ratioP2;P2;SDS_P1;SDS_P2;PMS_P1;PMS_P2;Temp;Humidity;BMP_temperature;BMP_pressure;BME280_temperature;BME280_humidity;BME280_pressure;Samples;Min_cycle;Max_cycle;Signal;HPM_P1;HPM_P2
2020/12/24 00:01:23;;;;;;;6.93;1.80;;;;;;;10.16;66.55;98335.63;5133464;27;20039;-64
2020/12/24 00:03:50;;;;;;;6.20;1.45;;;;;;;10.15;63.47;98325.25;5133440;27;20066;-65
2020/12/24 00:06:17;;;;;;;7.72;1.50;;;;;;;10.12;63.40;98329.13;5133797;27;20047;-65
2020/12/24 00:08:43;;;;;;;5.95;1.67;;;;;;;10.08;62.87;98319.13;5132871;27;20047;-64
2020/12/24 00:11:11;;;;;;;6.10;1.90;;;;;;;10.10;63.00;98307.38;5133278;27;20047;-65
2020/12/24 00:13:38;;;;;;;4.78;1.33;;;;;;;10.04;63.44;98308.19;5132983;27;20035;-64
2020/12/24 00:16:05;;;;;;;9.80;2.15;;;;;;;9.99;63.57;98325.63;5133211;27;20051;-65
2020/12/24 00:18:32;;;;;;;8.20;1.55;;;;;;;9.95;64.22;98350.81;5133187;27;20047;-64
2020/12/24 00:20:58;;;;;;;9.35;2.28;;;;;;;9.89;64.30;98337.38;5133123;27;20047;-65
2020/12/24 00:23:25;;;;;;;5.30;1.30;;;;;;;9.85;64.36;98317.69;5132693;27;20047;-65
2020/12/24 00:25:52;;;;;;;4.30;1.83;;;;;;;9.87;65.08;98325.38;5132987;27;20043;-64
2020/12/24 00:28:19;;;;;;;4.65;1.77;;;;;;;9.86;65.25;98323.78;5114551;27;20042;-64
2020/12/24 00:30:46;;;;;;;7.85;1.88;;;;;;;9.89;65.48;98297.78;5114571;27;20065;-64
2020/12/24 00:33:14;;;;;;;8.75;2.20;;;;;;;9.89;65.64;98299.63;5132896;27;20066;-65
2020/12/24 00:35:40;;;;;;;4.50;1.50;;;;;;;9.85;65.70;98288.63;5132629;27;20373;-65
2020/12/24 00:38:07;;;;;;;4.32;2.10;;;;;;;9.89;66.03;98307.53;5114595;27;20035;-64
2020/12/24 00:40:34;;;;;;;4.82;1.45;;;;;;;9.87;66.16;98320.09;5132899;27;20468;-64
2020/12/24 00:43:01;;;;;;;5.22;1.90;;;;;;;9.84;66.38;98328.44;5132830;27;20062;-65
2020/12/24 00:45:28;;;;;;;4.88;2.15;;;;;;;9.86;66.73;98310.56;5114093;28;20050;-64
2020/12/24 00:47:55;;;;;;;5.43;1.80;;;;;;;9.80;66.70;98319.31;5114192;27;20047;-64
2020/12/24 00:50:22;;;;;;;8.20;2.20;;;;;;;9.77;66.95;98323.13;5132738;27;20051;-65
2020/12/24 00:52:48;;;;;;;10.65;2.20;;;;;;;9.76;67.09;98321.53;5132651;27;20071;-64
2020/12/24 00:55:15;;;;;;;7.18;1.80;;;;;;;9.73;67.47;98300.78;5114057;28;20142;-65
2020/12/24 00:57:42;;;;;;;8.07;2.10;;;;;;;9.68;67.85;98309.31;5114524;28;20129;-65
2020/12/24 01:00:10;;;;;;;7.18;1.40;;;;;;;9.66;68.10;98334.28;5132673;27;20040;-64
2020/12/24 01:02:38;;;;;;;10.80;1.95;;;;;;;9.63;67.96;98338.13;5132518;27;20046;-64
2020/12/24 01:05:06;;;;;;;7.18;2.20;;;;;;;9.60;68.33;98338.53;5132209;28;20054;-64
2020/12/24 01:07:33;;;;;;;5.10;1.50;;;;;;;9.66;67.89;98336.91;5132512;28;20040;-65
2020/12/24 01:10:00;;;;;;;6.88;1.35;;;;;;;9.60;67.34;98317.41;5114304;28;20043;-64
2020/12/24 01:12:27;;;;;;;7.35;1.58;;;;;;;9.60;65.87;98327.97;5114104;28;20079;-65
2020/12/24 01:14:53;;;;;;;11.35;2.75;;;;;;;9.53;65.38;98324.47;5132352;27;20043;-64
2020/12/24 01:17:20;;;;;;;6.45;1.38;;;;;;;9.48;65.32;98319.00;5132511;28;20043;-65
2020/12/24 01:19:48;;;;;;;5.90;1.40;;;;;;;9.43;65.64;98324.88;5132522;27;20043;-64
2020/12/24 01:22:14;;;;;;;4.65;1.83;;;;;;;9.39;65.47;98328.91;5117787;27;20039;-65
2020/12/24 01:24:41;;;;;;;6.97;1.67;;;;;;;9.40;65.34;98341.06;5136185;27;20035;-64
2020/12/24 01:27:08;;;;;;;9.57;1.98;;;;;;;9.40;65.61;98327.06;5117836;27;20043;-64
2020/12/24 01:29:34;;;;;;;10.30;1.70;;;;;;;9.37;65.74;98309.81;5136394;27;20480;-65
2020/12/24 01:32:02;;;;;;;10.32;1.85;;;;;;;9.31;65.45;98322.97;5136419;27;20039;-64
2020/12/24 01:34:29;;;;;;;9.25;1.83;;;;;;;9.31;65.64;98312.44;5136217;27;20061;-65
2020/12/24 01:37:01;;;;;;;7.13;1.45;;;;;;;9.32;65.85;98314.88;5136195;27;20407;-65
2020/12/24 01:39:28;;;;;;;7.20;1.77;;;;;;;9.32;65.68;98338.59;5136385;27;20039;-64
2020/12/24 01:41:55;;;;;;;7.03;1.77;;;;;;;9.31;65.70;98336.97;5136087;27;20043;-65
2020/12/24 01:44:22;;;;;;;6.53;1.88;;;;;;;9.34;65.96;98341.03;5117268;27;20051;-64
2020/12/24 01:46:50;;;;;;;5.70;1.20;;;;;;;9.30;65.74;98347.72;5136160;27;20059;-65
2020/12/24 01:49:17;;;;;;;10.65;2.10;;;;;;;9.23;65.41;98331.06;5135962;27;20125;-65
2020/12/24 01:51:49;;;;;;;8.15;1.83;;;;;;;9.23;65.28;98331.88;5117520;27;20523;-64
2020/12/24 01:54:19;;;;;;;9.38;2.33;;;;;;;9.22;65.96;98338.13;5135701;27;20047;-62
2020/12/24 01:56:46;;;;;;;6.55;1.60;;;;;;;9.18;65.86;98323.69;5135910;27;20698;-63
2020/12/24 01:59:15;;;;;;;4.72;1.50;;;;;;;9.15;66.11;98321.47;5135831;27;20031;-63
2020/12/24 02:01:44;;;;;;;6.43;1.55;;;;;;;9.10;65.95;98329.97;5117398;27;20491;-62
2020/12/24 02:04:11;;;;;;;7.75;1.63;;;;;;;9.05;66.11;98344.72;5135584;27;20485;-63
2020/12/24 02:06:39;;;;;;;7.95;1.73;;;;;;;9.01;65.81;98331.13;5135458;27;20469;-63
2020/12/24 02:09:07;;;;;;;8.60;2.58;;;;;;;8.96;65.92;98328.25;5135571;27;20050;-63
2020/12/24 02:11:35;;;;;;;10.07;1.98;;;;;;;8.94;65.77;98319.75;5135804;27;20547;-63
2020/12/24 02:14:02;;;;;;;7.10;2.20;;;;;;;8.93;65.62;98302.28;5135249;27;20039;-63
2020/12/24 02:16:29;;;;;;;6.00;1.40;;;;;;;8.84;65.58;98311.34;5135587;27;20389;-63
2020/12/24 02:18:56;;;;;;;7.82;1.58;;;;;;;8.79;65.92;98303.22;5117324;27;20047;-64
2020/12/24 02:21:23;;;;;;;7.38;1.75;;;;;;;8.77;66.09;98302.59;5135423;27;20039;-64
2020/12/24 02:23:50;;;;;;;12.07;2.47;;;;;;;8.75;65.35;98294.88;5135104;27;20687;-63
2020/12/24 02:26:17;;;;;;;4.88;1.40;;;;;;;8.70;65.11;98293.84;5135287;27;20043;-64
2020/12/24 02:28:43;;;;;;;8.07;1.65;;;;;;;8.67;65.07;98284.50;5135191;27;20054;-63
2020/12/24 02:31:11;;;;;;;7.05;1.65;;;;;;;8.69;65.60;98277.19;5135312;27;20488;-64
2020/12/24 02:33:37;;;;;;;8.60;1.67;;;;;;;8.65;65.71;98271.53;5133927;27;20050;-63
2020/12/24 02:36:05;;;;;;;10.32;2.03;;;;;;;8.63;65.75;98273.53;5116703;27;20087;-64
2020/12/24 02:38:32;;;;;;;10.68;2.28;;;;;;;8.57;65.66;98263.75;5135049;27;20050;-64
2020/12/24 02:40:59;;;;;;;8.50;2.17;;;;;;;8.49;65.89;98258.66;5135130;27;20054;-64
2020/12/24 02:43:26;;;;;;;12.10;2.25;;;;;;;8.46;65.88;98256.38;5134714;27;20054;-64
2020/12/24 02:45:53;;;;;;;9.63;2.25;;;;;;;8.44;66.19;98253.13;5134899;27;20043;-64
2020/12/24 02:48:19;;;;;;;9.70;2.15;;;;;;;8.43;66.16;98252.31;5116419;27;20039;-64
2020/12/24 02:50:46;;;;;;;7.10;1.70;;;;;;;8.37;65.97;98244.38;5134823;27;20046;-64
2020/12/24 02:53:13;;;;;;;17.80;2.72;;;;;;;8.35;65.87;98239.25;5134800;27;20049;-64
2020/12/24 02:55:40;;;;;;;9.10;2.10;;;;;;;8.33;66.23;98243.09;5134610;27;20485;-64
2020/12/24 02:58:07;;;;;;;12.15;2.83;;;;;;;8.34;66.05;98236.81;5134988;27;20050;-63
2020/12/24 03:00:34;;;;;;;8.77;2.70;;;;;;;8.36;66.10;98235.59;5134742;27;20047;-64
2020/12/24 03:03:01;;;;;;;11.80;2.30;;;;;;;8.27;65.97;98235.94;5134617;27;20043;-64
2020/12/24 03:05:28;;;;;;;10.38;2.95;;;;;;;8.24;66.17;98236.31;5134142;27;20043;-64
2020/12/24 03:07:54;;;;;;;9.95;1.95;;;;;;;8.25;66.06;98230.06;5134474;27;20043;-64
2020/12/24 03:10:21;;;;;;;7.25;2.38;;;;;;;8.26;66.09;98234.31;5116214;27;20043;-64
2020/12/24 03:12:48;;;;;;;11.18;2.63;;;;;;;8.24;66.12;98226.59;5134381;27;20051;-64
2020/12/24 03:15:15;;;;;;;8.18;2.40;;;;;;;8.21;66.30;98231.47;5115719;27;20058;-64
2020/12/24 03:17:42;;;;;;;11.93;2.45;;;;;;;8.14;66.27;98232.22;5134294;27;20046;-64
2020/12/24 03:20:15;;;;;;;8.32;2.20;;;;;;;8.14;66.25;98236.66;5134378;27;20053;-64
2020/12/24 03:22:42;;;;;;;8.75;2.53;;;;;;;8.14;66.58;98242.75;5134199;27;20054;-64
2020/12/24 03:25:09;;;;;;;11.82;2.20;;;;;;;8.13;66.43;98243.75;5133892;27;20057;-64
2020/12/24 03:27:36;;;;;;;8.65;1.90;;;;;;;8.06;66.49;98227.09;5133937;27;20062;-64
2020/12/24 03:30:05;;;;;;;9.93;2.30;;;;;;;8.06;66.26;98223.63;5134071;27;20043;-64
2020/12/24 03:32:33;;;;;;;9.32;2.47;;;;;;;8.07;66.50;98235.78;5134116;27;20126;-64
2020/12/24 03:35:00;;;;;;;10.20;2.45;;;;;;;8.05;66.40;98235.19;5133662;27;20106;-64
2020/12/24 03:37:26;;;;;;;12.35;2.15;;;;;;;8.03;66.21;98229.28;5133891;27;20046;-64
2020/12/24 03:39:53;;;;;;;12.10;2.20;;;;;;;8.04;66.30;98221.22;5134034;27;20496;-64
2020/12/24 03:42:20;;;;;;;9.80;1.80;;;;;;;8.11;66.07;98215.97;5133909;27;20047;-64
2020/12/24 03:44:47;;;;;;;8.13;2.10;;;;;;;8.13;65.93;98209.53;5114674;27;20400;-64
2020/12/24 03:47:14;;;;;;;11.82;1.90;;;;;;;8.14;65.90;98205.06;5133650;27;20042;-64
2020/12/24 03:49:41;;;;;;;9.82;1.92;;;;;;;8.10;65.52;98196.75;5133934;27;20386;-64
2020/12/24 03:52:08;;;;;;;7.72;1.85;;;;;;;8.06;65.61;98192.88;5133938;27;20054;-64
2020/12/24 03:54:34;;;;;;;4.53;1.33;;;;;;;8.03;65.68;98200.31;5134227;27;20066;-64
2020/12/24 03:57:01;;;;;;;8.93;2.20;;;;;;;8.04;65.77;98194.03;5134625;27;20114;-64
2020/12/24 03:59:28;;;;;;;15.32;3.70;;;;;;;8.03;65.93;98174.81;5134230;27;20046;-63
2020/12/24 04:01:54;;;;;;;5.32;1.90;;;;;;;8.02;65.92;98180.28;5134403;27;20046;-64
2020/12/24 04:04:22;;;;;;;8.80;1.90;;;;;;;8.07;65.81;98176.06;5133614;27;20047;-64
2020/12/24 04:06:48;;;;;;;6.63;1.77;;;;;;;8.09;66.00;98175.88;5115830;27;20435;-64
2020/12/24 04:09:15;;;;;;;6.68;2.10;;;;;;;8.06;65.94;98173.63;5134340;27;20061;-64
2020/12/24 04:11:42;;;;;;;5.18;1.30;;;;;;;8.09;66.17;98176.69;5134815;27;20438;-64
2020/12/24 04:14:09;;;;;;;8.45;1.83;;;;;;;8.11;66.06;98172.03;5134482;27;20563;-64
2020/12/24 04:16:35;;;;;;;14.93;2.88;;;;;;;8.08;66.17;98164.53;5133503;27;20050;-63
2020/12/24 04:19:02;;;;;;;7.65;2.10;;;;;;;8.06;66.46;98149.94;5133390;27;20043;-64
2020/12/24 04:21:29;;;;;;;5.38;1.50;;;;;;;8.04;65.61;98155.41;5133572;27;20039;-64
2020/12/24 04:23:56;;;;;;;6.50;1.50;;;;;;;8.07;65.33;98154.19;5134028;27;20042;-63
2020/12/24 04:26:23;;;;;;;6.18;1.70;;;;;;;8.10;64.80;98165.16;5134347;27;20039;-64
2020/12/24 04:28:50;;;;;;;8.43;2.05;;;;;;;8.13;64.67;98161.34;5134336;27;20064;-64
2020/12/24 04:31:17;;;;;;;14.00;2.13;;;;;;;8.14;64.58;98152.41;5134105;27;20043;-64
2020/12/24 04:33:45;;;;;;;8.73;1.60;;;;;;;8.19;64.42;98156.09;5134140;27;20043;-64
2020/12/24 04:36:13;;;;;;;7.13;1.65;;;;;;;8.21;64.78;98165.63;5134257;27;20045;-64
2020/12/24 04:38:42;;;;;;;6.53;1.95;;;;;;;8.20;64.44;98154.25;5134250;27;20094;-64
2020/12/24 04:41:09;;;;;;;8.88;1.80;;;;;;;8.17;64.97;98158.13;5134230;27;20051;-64
2020/12/24 04:43:37;;;;;;;7.88;1.95;;;;;;;8.19;65.28;98147.38;5135209;27;20039;-63
2020/12/24 04:46:06;;;;;;;4.88;1.75;;;;;;;8.24;65.77;98142.34;5139097;27;20096;-64
2020/12/24 04:48:34;;;;;;;12.63;2.30;;;;;;;8.27;66.05;98141.16;5138391;27;20039;-64
2020/12/24 04:51:17;;;;;;;5.80;1.65;;;;;;;8.29;66.69;98142.59;5138887;28;20055;-64
2020/12/24 04:53:44;;;;;;;11.88;1.70;;;;;;;8.29;66.63;98139.16;5138917;28;20043;-63
2020/12/24 04:56:11;;;;;;;5.28;1.70;;;;;;;8.29;67.07;98129.44;5141124;27;20122;-63
2020/12/24 04:58:42;;;;;;;6.25;1.88;;;;;;;8.26;67.16;98126.38;5143589;27;20108;-63
2020/12/24 05:01:13;;;;;;;8.18;1.92;;;;;;;8.27;67.35;98128.78;5142788;27;20039;-64
2020/12/24 05:03:40;;;;;;;7.57;1.95;;;;;;;8.22;67.60;98119.88;5142669;27;20520;-64
2020/12/24 05:06:13;;;;;;;8.38;2.05;;;;;;;8.22;67.76;98120.66;5142782;27;20031;-64
2020/12/24 05:08:40;;;;;;;10.30;2.10;;;;;;;8.19;68.17;98128.94;5142800;27;20043;-63
2020/12/24 05:11:08;;;;;;;8.43;1.75;;;;;;;8.15;68.03;98120.63;5144340;27;20039;-64
2020/12/24 05:13:35;;;;;;;6.45;1.63;;;;;;;8.15;68.22;98114.56;5143596;27;20102;-63
2020/12/24 05:16:14;;;;;;;5.53;1.40;;;;;;;8.14;68.38;98119.00;5144815;27;20057;-63
2020/12/24 05:18:41;;;;;;;6.70;1.52;;;;;;;8.13;68.88;98114.75;5126535;27;20049;-63
2020/12/24 05:21:08;;;;;;;7.25;1.63;;;;;;;8.16;68.93;98109.09;5144943;27;20043;-64
2020/12/24 05:23:34;;;;;;;6.20;1.77;;;;;;;8.19;69.27;98107.88;5145138;27;20050;-63
2020/12/24 05:26:18;;;;;;;12.95;2.25;;;;;;;8.24;69.32;98113.38;5145082;27;20035;-63
2020/12/24 05:28:46;;;;;;;8.77;1.98;;;;;;;8.22;69.77;98114.59;5127226;27;20487;-63
2020/12/24 05:31:30;;;;;;;10.57;2.33;;;;;;;8.22;70.12;98122.50;5126989;27;20493;-63
2020/12/24 05:33:57;;;;;;;;;;;;;;;8.18;70.38;98116.81;5145032;27;20388;-64
2020/12/24 05:36:24;;;;;;;6.75;1.90;;;;;;;8.18;70.49;98114.97;5145244;27;20018;-63
2020/12/24 05:38:51;;;;;;;5.72;1.58;;;;;;;8.08;70.68;98114.53;5143120;27;20054;-63
2020/12/24 05:41:30;;;;;;;9.48;1.70;;;;;;;7.92;71.01;98115.63;5142963;27;20047;-63
2020/12/24 05:43:58;;;;;;;9.77;1.88;;;;;;;7.96;71.16;98108.19;5123417;27;20559;-63
2020/12/24 05:46:26;;;;;;;6.65;1.67;;;;;;;7.95;71.38;98103.91;5141372;27;20039;-63
2020/12/24 05:48:54;;;;;;;4.82;1.45;;;;;;;7.97;71.11;98103.72;5124101;27;20084;-64
2020/12/24 05:51:21;;;;;;;5.75;1.60;;;;;;;7.98;71.62;98103.50;5123503;27;20039;-63
2020/12/24 05:53:48;;;;;;;25.52;15.07;;;;;;;8.01;71.62;98107.59;5141662;27;20035;-63
2020/12/24 05:56:20;;;;;;;15.02;4.38;;;;;;;8.01;71.72;98112.84;5122741;27;20054;-63
2020/12/24 05:58:50;;;;;;;12.98;2.47;;;;;;;7.99;71.85;98112.22;5143912;27;20043;-64
2020/12/24 06:01:17;;;;;;;8.40;1.98;;;;;;;7.96;72.27;98110.81;5144199;27;20062;-64
2020/12/24 06:04:01;;;;;;;8.30;1.77;;;;;;;7.93;72.64;98114.63;5125550;27;20054;-64
2020/12/24 06:06:41;;;;;;;8.85;2.05;;;;;;;7.87;72.62;98101.41;5121653;27;20042;-64
2020/12/24 06:09:13;;;;;;;10.43;1.70;;;;;;;7.77;73.04;98096.50;5139814;27;20109;-64
2020/12/24 06:11:46;;;;;;;8.77;2.05;;;;;;;7.74;73.05;98094.25;5140396;27;20049;-64
2020/12/24 06:14:30;;;;;;;8.63;1.67;;;;;;;7.73;73.40;98094.44;5139900;27;20047;-64
2020/12/24 06:17:03;;;;;;;6.47;1.25;;;;;;;7.66;72.66;98092.56;5121580;27;20516;-64
2020/12/24 06:19:37;;;;;;;3.57;1.00;;;;;;;7.61;72.60;98086.25;5122008;27;20085;-64
2020/12/24 06:22:13;;;;;;;4.88;1.50;;;;;;;7.64;72.47;98089.31;5121576;27;20283;-64
2020/12/24 06:24:43;;;;;;;5.60;1.60;;;;;;;7.58;72.82;98094.53;5121262;27;20055;-64
2020/12/24 06:27:22;;;;;;;4.03;1.40;;;;;;;7.55;72.78;98093.09;5139470;27;20054;-64
2020/12/24 06:29:52;;;;;;;5.78;1.50;;;;;;;7.57;72.67;98095.53;5140108;27;20114;-64
2020/12/24 06:32:20;;;;;;;5.13;1.15;;;;;;;7.48;73.22;98096.69;5140438;27;20043;-64
2020/12/24 06:34:47;;;;;;;6.88;1.40;;;;;;;7.45;73.06;98092.59;5121337;27;20043;-64
2020/12/24 06:37:16;;;;;;;6.45;1.23;;;;;;;7.48;73.16;98094.06;5139588;27;20047;-64
2020/12/24 06:39:46;;;;;;;5.65;1.20;;;;;;;7.43;73.48;98092.00;5139504;27;20039;-64
2020/12/24 06:42:39;;;;;;;10.35;2.72;;;;;;;7.45;73.80;98097.88;5122965;27;20043;-64
2020/12/24 06:45:09;;;;;;;6.78;1.20;;;;;;;7.48;73.97;98094.88;5141115;27;20047;-64
2020/12/24 06:47:36;;;;;;;6.78;1.48;;;;;;;7.45;74.04;98095.22;5123575;27;20043;-64
2020/12/24 06:50:41;;;;;;;11.80;1.55;;;;;;;7.45;74.00;98082.09;5141525;27;20050;-64
2020/12/24 06:53:29;;;;;;;4.28;1.40;;;;;;;7.41;74.16;98088.72;5121439;27;20057;-64
2020/12/24 06:56:22;;;;;;;7.50;1.85;;;;;;;7.44;74.60;98094.41;5140978;27;20051;-64
2020/12/24 06:58:58;;;;;;;4.90;1.42;;;;;;;7.45;74.55;98095.22;5121740;27;20497;-64
2020/12/24 07:01:27;;;;;;;5.18;1.23;;;;;;;7.48;74.54;98089.59;5139819;27;20042;-65
2020/12/24 07:03:55;;;;;;;3.97;1.23;;;;;;;7.34;74.69;98096.53;5121760;27;20400;-64
2020/12/24 07:06:51;;;;;;;4.43;1.25;;;;;;;7.28;75.00;98089.44;5122254;27;20047;-64
2020/12/24 07:09:44;;;;;;;2.90;1.17;;;;;;;7.27;74.82;98082.56;5138941;27;20490;-64
2020/12/24 07:12:30;;;;;;;3.63;1.00;;;;;;;7.25;75.27;98102.94;5138646;27;20500;-64
2020/12/24 07:15:22;;;;;;;3.88;1.30;;;;;;;7.17;74.74;98082.84;5137544;27;20031;-64
2020/12/24 07:17:51;;;;;;;8.00;1.23;;;;;;;7.14;75.14;98085.03;5141455;27;20039;-64
2020/12/24 07:20:18;;;;;;;3.25;0.75;;;;;;;7.10;75.28;98105.66;5142622;27;20075;-64
2020/12/24 07:22:55;;;;;;;;;;;;;;;7.06;75.22;98093.88;5142744;27;20133;-64
2020/12/24 07:25:24;;;;;;;5.15;1.52;;;;;;;7.03;74.88;98096.88;5122993;27;20296;-65
2020/12/24 07:27:52;;;;;;;2.70;1.17;;;;;;;6.99;74.83;98103.50;5141643;27;20046;-65
2020/12/24 07:30:22;;;;;;;2.72;1.00;;;;;;;6.93;74.98;98110.31;5123865;27;20066;-65
2020/12/24 07:32:54;;;;;;;3.67;0.60;;;;;;;6.86;74.94;98109.44;5141720;27;20065;-65
2020/12/24 07:35:21;;;;;;;2.00;0.80;;;;;;;6.90;75.08;98109.88;5142472;27;20043;-65
2020/12/24 07:37:49;;;;;;;1.05;0.50;;;;;;;6.91;75.20;98108.88;5141848;27;20071;-65
2020/12/24 07:40:17;;;;;;;2.35;0.70;;;;;;;6.86;75.20;98122.56;5123603;27;20043;-65
2020/12/24 07:42:43;;;;;;;2.40;0.98;;;;;;;6.83;75.49;98106.38;5122907;27;20050;-65
2020/12/24 07:45:12;;;;;;;2.97;0.77;;;;;;;6.87;75.72;98116.31;5120253;27;20396;-65
2020/12/24 07:47:46;;;;;;;3.63;1.08;;;;;;;6.85;74.90;98128.00;5118790;27;20131;-65
2020/12/24 07:50:13;;;;;;;3.40;1.02;;;;;;;6.81;75.00;98116.22;5136698;27;20043;-65
2020/12/24 07:52:40;;;;;;;1.95;0.77;;;;;;;6.69;75.49;98119.38;5135966;27;20061;-65
2020/12/24 07:55:11;;;;;;;3.85;1.40;;;;;;;6.69;75.45;98122.00;5136216;27;20051;-65
2020/12/24 07:57:38;;;;;;;2.42;1.00;;;;;;;6.70;75.92;98128.84;5117937;27;20046;-65
2020/12/24 08:00:05;;;;;;;1.40;0.88;;;;;;;6.67;75.78;98137.09;5136497;27;20071;-65
2020/12/24 08:02:33;;;;;;;2.10;0.90;;;;;;;6.68;76.00;98127.41;5117005;27;20130;-65
2020/12/24 08:05:00;;;;;;;3.20;0.80;;;;;;;6.65;75.91;98128.59;5135480;27;20489;-65
2020/12/24 08:07:27;;;;;;;2.08;0.90;;;;;;;6.60;75.95;98136.19;5136326;27;20043;-66
2020/12/24 08:09:54;;;;;;;1.65;0.57;;;;;;;6.69;76.33;98142.16;5137418;27;20039;-65
2020/12/24 08:12:22;;;;;;;2.55;0.80;;;;;;;6.63;76.19;98142.91;5137033;27;20058;-65
2020/12/24 08:14:50;;;;;;;1.90;0.70;;;;;;;6.60;76.54;98140.63;5136139;27;20404;-65
2020/12/24 08:17:30;;;;;;;1.02;0.50;;;;;;;6.66;76.72;98146.00;5135754;27;20045;-65
2020/12/24 08:20:06;;;;;;;2.55;0.70;;;;;;;6.72;76.66;98136.53;5135658;27;20043;-65
2020/12/24 08:22:43;;;;;;;0.73;0.57;;;;;;;6.73;76.87;98132.09;5136337;27;20493;-64
2020/12/24 08:25:10;;;;;;;1.92;0.68;;;;;;;6.70;76.90;98136.75;5135590;27;20047;-64
2020/12/24 08:27:37;;;;;;;0.98;0.60;;;;;;;6.76;77.27;98135.19;5117665;27;20036;-65
2020/12/24 08:30:07;;;;;;;2.92;0.80;;;;;;;6.69;77.61;98142.16;5135011;27;20050;-65
2020/12/24 08:32:34;;;;;;;1.48;0.80;;;;;;;6.68;77.52;98132.66;5135951;27;20759;-64
2020/12/24 08:35:09;;;;;;;1.92;0.70;;;;;;;6.61;77.98;98139.63;5134814;27;20043;-64
2020/12/24 08:37:36;;;;;;;1.55;0.70;;;;;;;6.66;77.93;98134.66;5135625;27;20051;-65
2020/12/24 08:40:20;;;;;;;6.45;0.90;;;;;;;6.75;77.64;98136.19;5135840;27;20044;-64
2020/12/24 08:42:47;;;;;;;2.00;0.70;;;;;;;6.79;77.50;98132.19;5135798;27;20047;-64
2020/12/24 08:45:14;;;;;;;1.08;0.55;;;;;;;6.83;77.33;98138.72;5135305;27;20043;-64
2020/12/24 08:47:41;;;;;;;1.33;0.70;;;;;;;6.86;77.50;98125.22;5136869;27;20035;-64
2020/12/24 08:50:09;;;;;;;1.85;0.80;;;;;;;6.92;77.45;98118.38;5136911;27;20046;-63
2020/12/24 08:52:38;;;;;;;3.15;0.90;;;;;;;6.99;77.33;98116.66;5137644;27;20103;-63
2020/12/24 08:55:06;;;;;;;1.98;0.70;;;;;;;6.98;77.28;98122.91;5135658;27;20066;-63
2020/12/24 08:57:34;;;;;;;2.00;0.70;;;;;;;6.97;77.59;98121.25;5115134;28;20074;-63
2020/12/24 09:00:02;;;;;;;2.45;0.88;;;;;;;6.91;77.63;98130.72;5115420;28;20055;-64
2020/12/24 09:02:30;;;;;;;3.63;0.90;;;;;;;6.97;77.76;98139.66;5116228;28;20403;-64
2020/12/24 09:04:58;;;;;;;2.47;0.80;;;;;;;6.99;77.93;98132.41;5135195;27;20039;-64
2020/12/24 09:07:27;;;;;;;1.00;0.90;;;;;;;7.05;77.93;98144.00;5116543;28;20086;-64
2020/12/24 09:10:11;;;;;;;1.50;1.00;;;;;;;7.06;77.90;98141.19;5134897;28;20039;-64
2020/12/24 09:12:40;;;;;;;2.65;0.82;;;;;;;7.11;77.94;98156.41;5134218;27;20039;-64
2020/12/24 09:15:08;;;;;;;1.23;0.85;;;;;;;7.13;77.86;98152.56;5115313;28;20054;-64
2020/12/24 09:17:36;;;;;;;1.33;1.00;;;;;;;7.14;78.22;98145.50;5115965;28;20497;-63
2020/12/24 09:20:08;;;;;;;1.20;0.82;;;;;;;7.11;78.10;98156.41;5134654;28;20066;-64
2020/12/24 09:22:35;;;;;;;1.85;0.85;;;;;;;7.14;77.77;98156.84;5134373;27;20393;-64
2020/12/24 09:25:03;;;;;;;1.33;0.80;;;;;;;7.15;77.78;98158.47;5133579;28;20477;-64
2020/12/24 09:27:42;;;;;;;1.83;0.88;;;;;;;7.15;77.71;98155.84;5134190;27;20468;-64
2020/12/24 09:30:09;;;;;;;0.90;0.80;;;;;;;7.24;77.90;98169.69;5116044;28;20567;-64
2020/12/24 09:32:36;;;;;;;1.38;0.57;;;;;;;7.30;77.62;98168.91;5115796;28;20051;-64
2020/12/24 09:35:02;;;;;;;2.97;1.05;;;;;;;7.31;77.63;98164.50;5135334;27;20047;-64
2020/12/24 09:37:29;;;;;;;1.42;0.80;;;;;;;7.27;77.68;98179.81;5136945;28;20457;-64
2020/12/24 09:39:56;;;;;;;2.78;1.20;;;;;;;7.22;77.99;98174.28;5134603;28;20047;-64
2020/12/24 09:42:23;;;;;;;0.85;0.70;;;;;;;7.22;78.01;98176.91;5137060;27;20123;-64
2020/12/24 09:44:50;;;;;;;4.60;0.88;;;;;;;7.27;78.07;98187.72;5137078;27;20047;-65
2020/12/24 09:47:17;;;;;;;0.82;0.80;;;;;;;7.31;78.41;98190.78;5118969;27;20568;-64
2020/12/24 09:49:44;;;;;;;2.95;1.48;;;;;;;7.37;78.32;98193.47;5137673;27;20122;-64
2020/12/24 09:52:10;;;;;;;36.38;17.77;;;;;;;7.41;78.28;98196.53;5137606;27;20047;-64
2020/12/24 09:54:39;;;;;;;62.97;30.58;;;;;;;7.45;78.33;98203.06;5137098;27;20047;-64
2020/12/24 09:57:06;;;;;;;5.05;3.60;;;;;;;7.43;78.34;98190.09;5138986;27;20290;-64
2020/12/24 09:59:33;;;;;;;4.65;2.25;;;;;;;7.45;78.44;98189.91;5136888;27;20039;-64
2020/12/24 10:02:00;;;;;;;3.08;2.00;;;;;;;7.57;78.23;98188.41;5138295;27;20042;-64
2020/12/24 10:04:27;;;;;;;1.73;1.08;;;;;;;7.64;78.13;98194.53;5137785;27;20043;-64
2020/12/24 10:06:54;;;;;;;1.50;0.90;;;;;;;7.69;77.71;98180.81;5137837;27;20048;-64
2020/12/24 10:09:20;;;;;;;1.27;0.90;;;;;;;7.69;77.98;98192.16;5137786;27;20050;-64
2020/12/24 10:11:48;;;;;;;1.35;0.93;;;;;;;7.68;78.06;98185.28;5138106;27;20043;-64
2020/12/24 10:14:14;;;;;;;1.83;1.02;;;;;;;7.74;78.25;98193.41;5137261;27;20401;-64
2020/12/24 10:16:44;;;;;;;3.65;1.67;;;;;;;7.86;77.99;98191.91;5137198;27;20066;-64
2020/12/24 10:19:12;;;;;;;2.45;1.30;;;;;;;7.90;77.93;98201.84;5137648;27;20114;-64
2020/12/24 10:21:39;;;;;;;0.93;0.90;;;;;;;8.03;77.87;98210.84;5119338;27;20051;-64
2020/12/24 10:24:15;;;;;;;1.70;0.82;;;;;;;8.11;77.47;98198.38;5119456;27;20092;-64
2020/12/24 10:26:42;;;;;;;1.23;1.10;;;;;;;8.15;77.29;98204.06;5137288;27;20047;-64
2020/12/24 10:29:09;;;;;;;1.75;1.25;;;;;;;8.19;77.38;98206.13;5137841;27;20099;-64
2020/12/24 10:31:41;;;;;;;3.80;1.88;;;;;;;8.14;77.26;98205.88;5137947;27;20054;-64
2020/12/24 10:34:08;;;;;;;2.17;1.20;;;;;;;8.20;77.44;98212.19;5136889;27;20496;-64
2020/12/24 10:36:36;;;;;;;1.70;1.08;;;;;;;8.25;77.23;98211.66;5137323;27;20481;-64
2020/12/24 10:39:06;;;;;;;1.58;1.10;;;;;;;8.27;77.10;98209.63;5119172;27;20078;-64
2020/12/24 10:41:33;;;;;;;2.55;1.20;;;;;;;8.51;76.96;98208.38;5137371;27;20043;-64
2020/12/24 10:44:00;;;;;;;2.38;1.15;;;;;;;8.73;76.27;98217.00;5137484;27;20042;-64
2020/12/24 10:46:28;;;;;;;1.50;1.40;;;;;;;8.80;76.30;98221.31;5137805;27;20043;-64
2020/12/24 10:48:54;;;;;;;1.27;1.13;;;;;;;8.83;76.12;98213.03;5137131;27;20035;-64
2020/12/24 10:51:22;;;;;;;1.70;1.33;;;;;;;8.92;76.04;98213.66;5137675;27;20062;-64
2020/12/24 10:53:50;;;;;;;2.22;1.10;;;;;;;9.03;75.43;98214.94;5136010;27;20050;-64
2020/12/24 10:56:17;;;;;;;0.80;0.80;;;;;;;9.10;74.75;98207.84;5118672;27;20035;-64
2020/12/24 10:58:45;;;;;;;1.65;1.30;;;;;;;9.22;74.92;98203.63;5137198;27;20071;-65
2020/12/24 11:01:12;;;;;;;1.77;1.13;;;;;;;9.33;74.63;98194.34;5137116;27;20043;-65
2020/12/24 11:03:39;;;;;;;1.73;1.10;;;;;;;9.22;74.43;98200.19;5136522;27;20439;-65
2020/12/24 11:06:06;;;;;;;1.67;1.55;;;;;;;9.14;74.37;98201.16;5136998;27;20046;-64
2020/12/24 11:08:34;;;;;;;1.20;0.98;;;;;;;9.05;74.47;98207.63;5118176;27;20078;-64
2020/12/24 11:11:02;;;;;;;2.90;1.20;;;;;;;9.08;74.42;98199.34;5118367;27;20047;-64
2020/12/24 11:13:28;;;;;;;1.27;0.90;;;;;;;9.00;73.93;98200.31;5136106;27;20049;-64
2020/12/24 11:15:55;;;;;;;1.83;1.13;;;;;;;9.09;74.04;98201.75;5136527;27;20063;-64
2020/12/24 11:18:22;;;;;;;1.30;1.20;;;;;;;9.02;73.92;98203.59;5136478;27;20035;-64
2020/12/24 11:20:48;;;;;;;1.05;1.00;;;;;;;8.84;73.95;98209.38;5136631;27;20113;-64
2020/12/24 11:23:15;;;;;;;1.08;0.98;;;;;;;8.76;74.22;98204.25;5118207;27;20130;-64
2020/12/24 11:25:43;;;;;;;0.95;0.95;;;;;;;8.68;74.41;98204.44;5135548;27;20054;-64
2020/12/24 11:28:10;;;;;;;2.78;1.50;;;;;;;8.75;74.65;98210.56;5135350;27;20039;-64
2020/12/24 11:30:37;;;;;;;1.00;1.00;;;;;;;8.71;74.75;98201.41;5117239;27;20050;-64
2020/12/24 11:33:04;;;;;;;2.35;1.58;;;;;;;8.74;74.65;98201.03;5135708;27;20043;-64
2020/12/24 11:35:31;;;;;;;2.08;1.33;;;;;;;8.78;74.56;98212.00;5135664;27;20043;-64
2020/12/24 11:37:57;;;;;;;1.40;1.30;;;;;;;8.86;74.86;98211.81;5135134;27;20043;-64
2020/12/24 11:40:24;;;;;;;1.20;1.08;;;;;;;8.83;74.08;98206.94;5135414;27;20117;-64
2020/12/24 11:42:51;;;;;;;1.50;1.33;;;;;;;8.84;74.22;98205.94;5135085;27;20039;-64
2020/12/24 11:45:18;;;;;;;1.60;1.40;;;;;;;8.88;74.48;98212.44;5134919;27;20100;-64
2020/12/24 11:47:45;;;;;;;2.28;1.42;;;;;;;8.82;74.05;98211.41;5135333;27;20062;-64
2020/12/24 11:50:12;;;;;;;3.35;1.50;;;;;;;8.81;74.37;98207.13;5116640;27;20050;-64